CheckWX is a tool to help pilots better visualize weather data.  It is not intended as a substitute for an official pre-flight weather briefing.

14:00:12 UTC

KVGT METAR
North Las Vegas Airport
Las Vegas, Nevada, USA
Current

1 hour ago

KVGT 201253Z AUTO 32005KT 10SM CLR 24/M02 A2991 RMK AO2 SLP116 T02391017
Observed
Aug-20 @ 12:53 UTC
Wind
  • 320° at 5 KTS
Visibility
10 SM
Flight Rules
VFR
Cloud Levels
  • Clear skies
Temperature
24°C / 75°F
Dewpoint
-2°C / 28°F
Humidity
18%
Altimeter
29.91" Hg
Pressure
1012.92 hPa
Previous

2 hours ago

KVGT 201153Z AUTO 30004KT 10SM CLR 25/M01 A2990 RMK AO2 SLP111 T02501011 10317 20244 51006
Observed
Aug-20 @ 11:53 UTC
Wind
  • 300° at 4 KTS
Visibility
10 SM
Flight Rules
VFR
Cloud Levels
  • Clear skies
Temperature
25°C / 77°F
Dewpoint
-1°C / 30°F
Humidity
18%
Altimeter
29.9" Hg
Pressure
1012.52 hPa
Previous

3 hours ago

KVGT 201053Z AUTO 00000KT 10SM CLR 26/M02 A2990 RMK AO2 SLP111 T02561017
Observed
Aug-20 @ 10:53 UTC
Visibility
10 SM
Flight Rules
VFR
Cloud Levels
  • Clear skies
Temperature
26°C / 79°F
Dewpoint
-2°C / 28°F
Humidity
16%
Altimeter
29.9" Hg
Pressure
1012.52 hPa